Terminal Aerodrome Forecast
Issued by NWS Springfield, MO

Home | Current Version | Previous Version | Text Only | Print | Product List | Glossary On
Versions: 1 2 3 4 5 6 7 8 9 10 11 12 13 14 15 16 17 18 19
000
FTUS43 KSGF 311000 AAB
TAFSGF
TAF AMD
KSGF 311001Z 3110/0106 VRB03KT 5SM BR BKN006 OVC040
     FM311400 13006KT P6SM SCT008 BKN040
     FM311800 13006KT P6SM BKN040
     FM010000 10005KT P6SM FEW040 SCT250=

USA.gov is the U.S. government's official web portal to all federal, state and local government web resources and services.